createdAt,value
2023-01-26T00:02:22.411Z,25.39
2023-01-26T00:07:28.475Z,25.41
2023-01-26T00:12:34.537Z,25.43
2023-01-26T00:17:40.591Z,25.46
2023-01-26T00:22:46.716Z,25.48
2023-01-26T00:27:52.774Z,25.54
2023-01-26T00:32:58.856Z,25.56
2023-01-26T00:38:04.959Z,25.58
2023-01-26T00:43:11.029Z,25.60
2023-01-26T00:48:17.116Z,25.64
2023-01-26T00:53:23.183Z,25.67
2023-01-26T00:58:29.281Z,25.72
2023-01-26T01:03:35.372Z,25.80
2023-01-26T01:08:41.442Z,25.83
2023-01-26T01:13:47.511Z,25.92
2023-01-26T01:18:53.658Z,25.95
2023-01-26T01:23:59.805Z,25.99
2023-01-26T01:29:05.833Z,26.00
2023-01-26T01:34:11.953Z,26.06
2023-01-26T01:39:18.029Z,26.10
2023-01-26T01:44:24.100Z,26.12
2023-01-26T01:49:30.187Z,26.18
2023-01-26T01:54:36.260Z,26.20
2023-01-26T01:59:42.325Z,26.25
2023-01-26T02:04:48.390Z,26.30
2023-01-26T02:09:54.531Z,26.35
2023-01-26T02:15:00.597Z,26.38
2023-01-26T02:20:06.642Z,26.41
2023-01-26T02:25:12.750Z,26.44
2023-01-26T02:30:18.840Z,26.44
2023-01-26T02:35:24.900Z,26.41
2023-01-26T02:40:31.019Z,26.38
2023-01-26T02:45:37.069Z,26.40
2023-01-26T02:50:43.144Z,26.41
2023-01-26T02:55:49.261Z,26.51
2023-01-26T03:00:55.431Z,26.51
2023-01-26T03:06:01.517Z,26.59
2023-01-26T03:11:07.651Z,26.72
2023-01-26T03:16:13.679Z,26.81
2023-01-26T03:21:19.738Z,26.82
2023-01-26T03:26:25.836Z,26.82
2023-01-26T03:31:31.974Z,26.83
2023-01-26T03:36:37.992Z,26.85
2023-01-26T03:41:44.103Z,26.92
2023-01-26T03:46:50.190Z,26.95
2023-01-26T03:51:56.230Z,26.98
2023-01-26T03:57:02.332Z,27.02
2023-01-26T04:02:09.562Z,27.03
2023-01-26T04:07:16.669Z,27.10
2023-01-26T04:12:23.854Z,27.20
2023-01-26T04:17:31.030Z,27.26
2023-01-26T04:22:38.207Z,27.27
2023-01-26T04:27:45.421Z,27.31
2023-01-26T04:32:52.655Z,27.34
2023-01-26T04:37:59.853Z,27.37
2023-01-26T04:43:07.176Z,27.38
2023-01-26T04:48:14.322Z,27.36
2023-01-26T04:53:20.415Z,27.41
2023-01-26T04:58:26.507Z,27.43
2023-01-26T05:03:32.562Z,27.50
2023-01-26T05:08:38.664Z,27.50
2023-01-26T05:13:44.767Z,27.47
2023-01-26T05:18:50.883Z,27.53
2023-01-26T05:23:57.033Z,27.48
2023-01-26T05:29:03.107Z,27.53
2023-01-26T05:34:09.158Z,27.57
2023-01-26T05:39:15.235Z,27.52
2023-01-26T05:44:21.358Z,27.54
2023-01-26T05:49:27.397Z,27.58
2023-01-26T05:54:33.475Z,27.61
2023-01-26T05:59:39.578Z,27.63
2023-01-26T06:04:45.644Z,27.61
2023-01-26T06:09:51.738Z,27.66
2023-01-26T06:14:57.819Z,27.62
2023-01-26T06:20:03.888Z,27.63
2023-01-26T06:25:09.966Z,27.59
2023-01-26T06:30:16.090Z,27.60
2023-01-26T06:35:22.147Z,27.58
2023-01-26T06:40:28.265Z,27.59
2023-01-26T06:45:34.404Z,27.60
2023-01-26T06:50:40.472Z,27.60
2023-01-26T06:55:46.573Z,27.61
2023-01-26T07:00:52.678Z,27.64
2023-01-26T07:05:58.736Z,27.64
2023-01-26T07:11:05.323Z,27.69
2023-01-26T07:16:10.929Z,27.69
2023-01-26T07:21:16.964Z,27.72
2023-01-26T07:26:23.142Z,27.73
2023-01-26T07:31:29.337Z,27.75
2023-01-26T07:36:35.303Z,27.70
2023-01-26T07:41:41.436Z,27.71
2023-01-26T07:46:47.648Z,27.67
2023-01-26T07:51:53.648Z,27.66
2023-01-26T07:56:59.748Z,27.72
2023-01-26T08:02:05.842Z,27.67
2023-01-26T08:07:11.937Z,27.72
2023-01-26T08:12:17.986Z,27.85
2023-01-26T08:17:24.049Z,27.84
2023-01-26T08:22:30.109Z,27.80
2023-01-26T08:27:36.209Z,27.81
2023-01-26T08:32:42.255Z,27.87
2023-01-26T08:37:48.274Z,27.89
2023-01-26T08:42:54.348Z,27.93
2023-01-26T08:48:00.465Z,28.02
2023-01-26T08:53:06.513Z,28.23
2023-01-26T08:58:13.693Z,28.87
2023-01-26T09:03:20.920Z,28.66
2023-01-26T09:08:28.054Z,28.66
2023-01-26T09:13:35.231Z,28.63
2023-01-26T09:18:42.452Z,28.63
2023-01-26T09:23:49.644Z,28.50
2023-01-26T09:28:56.983Z,28.40
2023-01-26T09:34:04.187Z,28.31
2023-01-26T09:39:11.387Z,28.24
2023-01-26T09:44:18.795Z,28.27
2023-01-26T09:49:26.082Z,28.21
2023-01-26T09:54:33.333Z,28.18
2023-01-26T09:59:40.701Z,28.15
2023-01-26T10:04:47.906Z,28.12
2023-01-26T10:09:55.118Z,28.11
2023-01-26T10:15:02.266Z,28.08
2023-01-26T10:20:09.483Z,28.04
2023-01-26T10:25:16.649Z,27.96
2023-01-26T10:30:23.827Z,27.95
2023-01-26T10:35:31.022Z,27.89
2023-01-26T10:40:38.160Z,27.86
2023-01-26T10:45:45.381Z,27.79
2023-01-26T10:50:52.578Z,27.78
2023-01-26T10:55:59.742Z,27.95
2023-01-26T11:01:06.937Z,28.08
2023-01-26T11:06:14.304Z,28.11
2023-01-26T11:11:21.398Z,28.20
2023-01-26T11:16:28.657Z,28.23
2023-01-26T11:21:35.942Z,28.29
2023-01-26T11:26:42.962Z,28.34
2023-01-26T11:31:50.120Z,28.34
2023-01-26T11:36:57.390Z,28.40
2023-01-26T11:42:04.633Z,28.40
2023-01-26T11:47:11.804Z,28.45
2023-01-26T11:52:19.019Z,28.44
2023-01-26T11:57:26.162Z,28.43
2023-01-26T12:02:33.390Z,28.40
2023-01-26T12:07:40.659Z,28.40
2023-01-26T12:12:47.886Z,28.44
2023-01-26T12:17:55.221Z,28.52
2023-01-26T12:23:02.412Z,28.50
2023-01-26T12:28:09.784Z,28.47
2023-01-26T12:33:17.000Z,28.51
2023-01-26T12:38:24.316Z,28.50
2023-01-26T12:43:31.539Z,28.53
2023-01-26T12:48:38.695Z,28.54
2023-01-26T12:53:45.899Z,28.60
2023-01-26T12:58:53.069Z,28.67
2023-01-26T13:04:00.341Z,28.71
2023-01-26T13:09:07.597Z,28.77
2023-01-26T13:14:14.790Z,28.75
2023-01-26T13:19:22.064Z,28.72
2023-01-26T13:24:29.387Z,28.69
2023-01-26T13:29:36.602Z,28.72
2023-01-26T13:34:43.794Z,28.74
2023-01-26T13:39:50.987Z,28.74
2023-01-26T13:44:58.146Z,28.78
2023-01-26T13:50:05.327Z,28.82
2023-01-26T13:55:12.568Z,28.74
2023-01-26T14:00:19.690Z,28.79
2023-01-26T14:05:26.877Z,28.77
2023-01-26T14:10:34.181Z,28.83
2023-01-26T14:15:41.431Z,28.90
2023-01-26T14:20:48.654Z,28.92
2023-01-26T14:25:55.858Z,28.94
2023-01-26T14:31:03.085Z,28.97
2023-01-26T14:36:10.176Z,28.95
2023-01-26T14:41:17.489Z,28.95
2023-01-26T14:46:24.721Z,28.92
2023-01-26T14:51:31.872Z,28.91
2023-01-26T14:56:39.144Z,28.92
2023-01-26T15:01:46.419Z,28.95
2023-01-26T15:06:53.693Z,29.02
2023-01-26T15:12:00.904Z,28.96
2023-01-26T15:17:08.209Z,28.95
2023-01-26T15:22:15.418Z,28.96
2023-01-26T15:27:22.649Z,29.01
2023-01-26T15:32:29.846Z,29.03
2023-01-26T15:37:37.116Z,29.05
2023-01-26T15:42:44.363Z,29.08
2023-01-26T15:47:51.576Z,29.12
2023-01-26T15:52:58.755Z,29.22
2023-01-26T15:58:06.261Z,29.22
2023-01-26T16:03:13.434Z,29.18
2023-01-26T16:08:20.589Z,29.09
2023-01-26T16:13:27.839Z,29.09
2023-01-26T16:18:35.063Z,29.11
2023-01-26T16:23:42.281Z,29.11
2023-01-26T16:28:49.588Z,29.14
2023-01-26T16:33:56.752Z,29.14
2023-01-26T16:39:03.936Z,29.18
2023-01-26T16:44:11.128Z,29.14
2023-01-26T16:49:18.341Z,29.17
2023-01-26T16:54:25.613Z,29.18
2023-01-26T16:59:33.044Z,29.21
2023-01-26T17:04:40.343Z,29.23
2023-01-26T17:09:47.513Z,29.27
2023-01-26T17:14:54.802Z,29.35
2023-01-26T17:20:17.603Z,29.32
2023-01-26T17:25:09.192Z,29.27
2023-01-26T17:30:16.486Z,29.89
2023-01-26T17:35:24.038Z,30.58
2023-01-26T17:40:31.225Z,30.26
2023-01-26T17:45:38.448Z,29.80
2023-01-26T17:50:45.583Z,29.48
2023-01-26T17:55:52.998Z,29.18
2023-01-26T18:01:00.449Z,28.87
2023-01-26T18:06:07.886Z,28.71
2023-01-26T18:11:15.304Z,28.56
2023-01-26T18:16:22.649Z,28.40
2023-01-26T18:21:29.824Z,28.44
2023-01-26T18:26:36.990Z,28.47
2023-01-26T18:31:44.512Z,28.37
2023-01-26T18:36:52.170Z,28.14
2023-01-26T18:41:59.973Z,28.00
2023-01-26T18:47:08.618Z,27.85
2023-01-26T18:52:16.207Z,28.04
2023-01-26T18:57:23.668Z,28.95
2023-01-26T19:02:31.289Z,29.04
2023-01-26T19:07:38.852Z,29.19
2023-01-26T19:12:46.468Z,29.33
2023-01-26T19:17:54.600Z,29.33
2023-01-26T19:23:01.902Z,29.34
2023-01-26T19:28:09.512Z,29.27
2023-01-26T19:33:17.151Z,29.19
2023-01-26T19:38:24.751Z,29.18
2023-01-26T19:43:32.304Z,29.20
2023-01-26T19:48:39.918Z,29.04
2023-01-26T19:53:47.178Z,29.00
2023-01-26T19:58:54.637Z,28.87
2023-01-26T20:04:02.332Z,28.85
2023-01-26T20:09:09.932Z,28.82
2023-01-26T20:14:17.525Z,28.75
2023-01-26T20:19:24.929Z,28.75
2023-01-26T20:24:32.378Z,28.65
2023-01-26T20:29:39.860Z,28.69
2023-01-26T20:34:47.508Z,28.63
2023-01-26T20:39:55.090Z,28.57
2023-01-26T20:45:02.828Z,28.41
2023-01-26T20:50:10.870Z,28.38
2023-01-26T20:55:17.897Z,28.36
2023-01-26T21:00:25.159Z,28.30
2023-01-26T21:05:32.679Z,28.26
2023-01-26T21:10:39.907Z,28.24
2023-01-26T21:15:47.466Z,28.24
2023-01-26T21:20:57.098Z,28.73
2023-01-26T21:26:02.234Z,28.59
2023-01-26T21:31:09.651Z,28.50
2023-01-26T21:36:16.925Z,28.37
2023-01-26T21:41:24.514Z,28.37
2023-01-26T21:46:31.851Z,28.33
2023-01-26T21:51:39.086Z,28.27
2023-01-26T21:56:46.253Z,28.20
2023-01-26T22:01:53.464Z,28.12
2023-01-26T22:07:00.748Z,28.09
2023-01-26T22:12:07.963Z,28.11
2023-01-26T22:17:15.181Z,28.17
2023-01-26T22:22:22.418Z,28.12
2023-01-26T22:27:29.654Z,28.07
2023-01-26T22:32:36.832Z,27.94
2023-01-26T22:37:44.136Z,27.86
2023-01-26T22:42:51.597Z,27.82
2023-01-26T22:47:58.891Z,27.85
2023-01-26T22:53:06.097Z,27.81
2023-01-26T22:58:13.257Z,27.74
2023-01-26T23:03:20.430Z,27.72
2023-01-26T23:08:27.657Z,27.67
2023-01-26T23:13:34.812Z,27.59
2023-01-26T23:18:41.997Z,27.57
2023-01-26T23:23:49.440Z,27.47
2023-01-26T23:28:56.450Z,27.46
2023-01-26T23:34:03.649Z,27.39
2023-01-26T23:39:10.857Z,27.36
2023-01-26T23:44:18.024Z,27.18
2023-01-26T23:49:25.202Z,27.05
2023-01-26T23:54:32.505Z,26.95
2023-01-26T23:59:39.688Z,26.87
